sensor_id;sensor_type;location;lat;lon;timestamp;pressure;altitude;pressure_sealevel;temperature;humidity
21102;BME280;10709;49.006;12.100;2023-04-07T00:00:29;48540.34;;;-146.00;59.90
21102;BME280;10709;49.006;12.100;2023-04-07T00:02:56;48554.06;;;-146.00;60.30
21102;BME280;10709;49.006;12.100;2023-04-07T00:05:22;48534.47;;;-146.00;60.15
21102;BME280;10709;49.006;12.100;2023-04-07T00:07:49;48546.22;;;-146.00;60.08
21102;BME280;10709;49.006;12.100;2023-04-07T00:10:23;48557.97;;;-146.00;60.31
21102;BME280;10709;49.006;12.100;2023-04-07T00:12:50;48550.16;;;-146.00;60.25
21102;BME280;10709;49.006;12.100;2023-04-07T00:15:17;48587.38;;;-146.00;60.51
21102;BME280;10709;49.006;12.100;2023-04-07T00:17:44;48569.72;;;-146.00;60.44
21102;BME280;10709;49.006;12.100;2023-04-07T00:20:11;48556.03;;;-146.00;60.74
21102;BME280;10709;49.006;12.100;2023-04-07T00:22:37;48573.66;;;-146.00;60.49
21102;BME280;10709;49.006;12.100;2023-04-07T00:25:04;48577.56;;;-146.00;60.82
21102;BME280;10709;49.006;12.100;2023-04-07T00:27:31;48559.94;;;-146.00;61.17
21102;BME280;10709;49.006;12.100;2023-04-07T00:29:57;48567.78;;;-146.00;61.04
21102;BME280;10709;49.006;12.100;2023-04-07T00:32:24;48550.16;;;-146.00;61.25
21102;BME280;10709;49.006;12.100;2023-04-07T00:34:50;48561.91;;;-146.00;60.89
21102;BME280;10709;49.006;12.100;2023-04-07T00:37:17;48557.97;;;-146.00;61.10
21102;BME280;10709;49.006;12.100;2023-04-07T00:39:44;48554.06;;;-146.00;60.75
21102;BME280;10709;49.006;12.100;2023-04-07T00:42:12;48561.91;;;-146.00;60.99
21102;BME280;10709;49.006;12.100;2023-04-07T00:44:38;48542.31;;;-146.00;60.88
21102;BME280;10709;49.006;12.100;2023-04-07T00:47:05;48554.06;;;-146.00;60.70
21102;BME280;10709;49.006;12.100;2023-04-07T00:49:31;48544.28;;;-146.00;60.75
21102;BME280;10709;49.006;12.100;2023-04-07T00:51:58;48550.16;;;-146.00;60.74
21102;BME280;10709;49.006;12.100;2023-04-07T00:54:25;48542.31;;;-146.00;61.28
21102;BME280;10709;49.006;12.100;2023-04-07T00:56:52;48550.16;;;-146.00;60.87
21102;BME280;10709;49.006;12.100;2023-04-07T00:59:19;48530.56;;;-146.00;61.07
21102;BME280;10709;49.006;12.100;2023-04-07T01:02:10;48540.34;;;-146.00;61.02
21102;BME280;10709;49.006;12.100;2023-04-07T01:05:15;48559.94;;;-146.00;61.66
21102;BME280;10709;49.006;12.100;2023-04-07T01:08:07;48550.16;;;-146.00;61.14
21102;BME280;10709;49.006;12.100;2023-04-07T01:10:49;48565.81;;;-146.00;61.63
21102;BME280;10709;49.006;12.100;2023-04-07T01:13:28;48530.56;;;-146.00;61.48
21102;BME280;10709;49.006;12.100;2023-04-07T01:15:57;48550.16;;;-146.00;61.32
21102;BME280;10709;49.006;12.100;2023-04-07T01:18:31;48550.16;;;-146.00;61.83
21102;BME280;10709;49.006;12.100;2023-04-07T01:21:02;48530.56;;;-146.00;62.21
21102;BME280;10709;49.006;12.100;2023-04-07T01:26:32;48544.28;;;-146.00;61.43
21102;BME280;10709;49.006;12.100;2023-04-07T01:31:49;48554.06;;;-146.00;61.83
21102;BME280;10709;49.006;12.100;2023-04-07T01:34:17;48557.97;;;-146.00;62.08
21102;BME280;10709;49.006;12.100;2023-04-07T01:36:45;48556.03;;;-146.00;61.83
21102;BME280;10709;49.006;12.100;2023-04-07T01:39:12;48561.91;;;-146.00;62.07
21102;BME280;10709;49.006;12.100;2023-04-07T01:41:40;48554.06;;;-146.00;62.17
21102;BME280;10709;49.006;12.100;2023-04-07T01:44:07;48557.97;;;-146.00;61.96
21102;BME280;10709;49.006;12.100;2023-04-07T01:46:34;48550.16;;;-146.00;61.98
21102;BME280;10709;49.006;12.100;2023-04-07T01:49:02;48546.22;;;-146.00;62.39
21102;BME280;10709;49.006;12.100;2023-04-07T01:51:29;48552.09;;;-146.00;62.47
21102;BME280;10709;49.006;12.100;2023-04-07T01:53:58;48540.34;;;-146.00;62.13
21102;BME280;10709;49.006;12.100;2023-04-07T01:56:24;48554.06;;;-146.00;62.72
21102;BME280;10709;49.006;12.100;2023-04-07T01:58:50;48554.06;;;-146.00;63.35
21102;BME280;10709;49.006;12.100;2023-04-07T02:01:17;48546.22;;;-146.00;62.88
21102;BME280;10709;49.006;12.100;2023-04-07T02:06:23;48546.22;;;-146.00;63.45
21102;BME280;10709;49.006;12.100;2023-04-07T02:08:56;48573.66;;;-146.00;63.20
21102;BME280;10709;49.006;12.100;2023-04-07T02:11:25;48550.16;;;-146.00;63.59
21102;BME280;10709;49.006;12.100;2023-04-07T02:13:53;48561.91;;;-146.00;63.99
21102;BME280;10709;49.006;12.100;2023-04-07T02:16:21;48542.31;;;-146.00;63.97
21102;BME280;10709;49.006;12.100;2023-04-07T02:18:48;48556.03;;;-146.00;64.38
21102;BME280;10709;49.006;12.100;2023-04-07T02:21:15;48561.91;;;-146.00;64.84
21102;BME280;10709;49.006;12.100;2023-04-07T02:23:42;48542.31;;;-146.00;65.42
21102;BME280;10709;49.006;12.100;2023-04-07T02:26:09;48569.72;;;-146.00;65.11
21102;BME280;10709;49.006;12.100;2023-04-07T02:28:35;48546.22;;;-146.00;65.21
21102;BME280;10709;49.006;12.100;2023-04-07T02:31:01;48546.22;;;-146.00;65.24
21102;BME280;10709;49.006;12.100;2023-04-07T02:33:28;48565.81;;;-146.00;64.95
21102;BME280;10709;49.006;12.100;2023-04-07T02:35:54;48550.16;;;-146.00;65.26
21102;BME280;10709;49.006;12.100;2023-04-07T02:38:21;48552.09;;;-146.00;65.43
21102;BME280;10709;49.006;12.100;2023-04-07T02:40:48;48554.06;;;-146.00;65.15
21102;BME280;10709;49.006;12.100;2023-04-07T02:43:14;48554.06;;;-146.00;64.81
21102;BME280;10709;49.006;12.100;2023-04-07T02:45:42;48546.22;;;-146.00;64.93
21102;BME280;10709;49.006;12.100;2023-04-07T02:48:09;48550.16;;;-146.00;64.86
21102;BME280;10709;49.006;12.100;2023-04-07T02:50:36;48557.97;;;-146.00;65.52
21102;BME280;10709;49.006;12.100;2023-04-07T02:53:02;48534.47;;;-146.00;65.13
21102;BME280;10709;49.006;12.100;2023-04-07T02:55:29;48544.28;;;-146.00;65.59
21102;BME280;10709;49.006;12.100;2023-04-07T02:57:55;48526.63;;;-146.00;65.76
21102;BME280;10709;49.006;12.100;2023-04-07T03:00:22;48544.28;;;-146.00;65.59
21102;BME280;10709;49.006;12.100;2023-04-07T03:02:48;48546.22;;;-146.00;65.37
21102;BME280;10709;49.006;12.100;2023-04-07T03:05:15;48554.06;;;-146.00;65.53
21102;BME280;10709;49.006;12.100;2023-04-07T03:07:41;48546.22;;;-146.00;66.03
21102;BME280;10709;49.006;12.100;2023-04-07T03:10:08;48542.31;;;-146.00;66.61
21102;BME280;10709;49.006;12.100;2023-04-07T03:12:35;48538.41;;;-146.00;65.96
21102;BME280;10709;49.006;12.100;2023-04-07T03:15:01;48538.41;;;-146.00;66.22
21102;BME280;10709;49.006;12.100;2023-04-07T03:17:28;48554.06;;;-146.00;66.01
21102;BME280;10709;49.006;12.100;2023-04-07T03:19:55;48544.28;;;-146.00;65.67
21102;BME280;10709;49.006;12.100;2023-04-07T03:22:21;48542.31;;;-146.00;66.45
21102;BME280;10709;49.006;12.100;2023-04-07T03:24:48;48546.22;;;-146.00;66.48
21102;BME280;10709;49.006;12.100;2023-04-07T03:27:14;48538.41;;;-146.00;66.32
21102;BME280;10709;49.006;12.100;2023-04-07T03:29:42;48556.03;;;-146.00;66.45
21102;BME280;10709;49.006;12.100;2023-04-07T03:32:09;48530.56;;;-146.00;66.52
21102;BME280;10709;49.006;12.100;2023-04-07T03:34:35;48557.97;;;-146.00;66.42
21102;BME280;10709;49.006;12.100;2023-04-07T03:37:02;48548.19;;;-146.00;66.58
21102;BME280;10709;49.006;12.100;2023-04-07T03:39:28;48534.47;;;-146.00;67.13
21102;BME280;10709;49.006;12.100;2023-04-07T03:41:56;48526.63;;;-146.00;67.63
21102;BME280;10709;49.006;12.100;2023-04-07T03:44:22;48534.47;;;-146.00;67.13
21102;BME280;10709;49.006;12.100;2023-04-07T03:46:49;48546.22;;;-146.00;66.83
21102;BME280;10709;49.006;12.100;2023-04-07T03:49:16;48538.41;;;-146.00;66.76
21102;BME280;10709;49.006;12.100;2023-04-07T03:51:42;48520.75;;;-146.00;66.62
21102;BME280;10709;49.006;12.100;2023-04-07T03:54:09;48569.72;;;-146.00;66.98
21102;BME280;10709;49.006;12.100;2023-04-07T03:56:35;48522.72;;;-146.00;67.08
21102;BME280;10709;49.006;12.100;2023-04-07T03:59:03;48526.63;;;-146.00;67.14
21102;BME280;10709;49.006;12.100;2023-04-07T04:01:29;48540.34;;;-146.00;66.87
21102;BME280;10709;49.006;12.100;2023-04-07T04:03:57;48528.59;;;-146.00;66.92
21102;BME280;10709;49.006;12.100;2023-04-07T04:06:24;48538.41;;;-146.00;67.29
21102;BME280;10709;49.006;12.100;2023-04-07T04:08:52;48534.47;;;-146.00;67.05
21102;BME280;10709;49.006;12.100;2023-04-07T04:11:19;48554.06;;;-146.00;67.02
21102;BME280;10709;49.006;12.100;2023-04-07T04:13:45;48561.91;;;-146.00;66.96
21102;BME280;10709;49.006;12.100;2023-04-07T04:16:12;48569.72;;;-146.00;67.44
21102;BME280;10709;49.006;12.100;2023-04-07T04:18:40;48526.63;;;-146.00;66.88
21102;BME280;10709;49.006;12.100;2023-04-07T04:21:07;48528.59;;;-146.00;66.96
21102;BME280;10709;49.006;12.100;2023-04-07T04:23:33;48557.97;;;-146.00;67.01
21102;BME280;10709;49.006;12.100;2023-04-07T04:25:59;48546.22;;;-146.00;66.88
21102;BME280;10709;49.006;12.100;2023-04-07T04:28:29;48538.41;;;-146.00;66.95
21102;BME280;10709;49.006;12.100;2023-04-07T04:30:55;48534.47;;;-146.00;67.44
21102;BME280;10709;49.006;12.100;2023-04-07T04:33:22;48546.22;;;-146.00;66.96
21102;BME280;10709;49.006;12.100;2023-04-07T04:35:48;48532.50;;;-146.00;67.23
21102;BME280;10709;49.006;12.100;2023-04-07T04:38:15;48524.69;;;-146.00;66.99
21102;BME280;10709;49.006;12.100;2023-04-07T04:40:42;48550.16;;;-146.00;67.11
21102;BME280;10709;49.006;12.100;2023-04-07T04:43:08;48544.28;;;-146.00;67.14
21102;BME280;10709;49.006;12.100;2023-04-07T04:45:35;48561.91;;;-146.00;67.16
21102;BME280;10709;49.006;12.100;2023-04-07T04:48:01;48542.31;;;-146.00;67.12
21102;BME280;10709;49.006;12.100;2023-04-07T04:50:28;48542.31;;;-146.00;67.68
21102;BME280;10709;49.006;12.100;2023-04-07T04:52:54;48530.56;;;-146.00;67.82
21102;BME280;10709;49.006;12.100;2023-04-07T04:55:20;48550.16;;;-146.00;68.16
21102;BME280;10709;49.006;12.100;2023-04-07T04:57:47;48526.63;;;-146.00;67.84
21102;BME280;10709;49.006;12.100;2023-04-07T05:00:14;48524.69;;;-146.00;68.45
21102;BME280;10709;49.006;12.100;2023-04-07T05:02:40;48569.72;;;-146.00;68.79
21102;BME280;10709;49.006;12.100;2023-04-07T05:05:08;48544.28;;;-146.00;68.40
21102;BME280;10709;49.006;12.100;2023-04-07T05:07:35;48544.28;;;-146.00;69.05
21102;BME280;10709;49.006;12.100;2023-04-07T05:10:02;48552.09;;;-146.00;69.37
21102;BME280;10709;49.006;12.100;2023-04-07T05:12:29;48542.31;;;-146.00;69.46
21102;BME280;10709;49.006;12.100;2023-04-07T05:14:56;48542.31;;;-146.00;69.46
21102;BME280;10709;49.006;12.100;2023-04-07T05:17:22;48546.22;;;-146.00;69.16
21102;BME280;10709;49.006;12.100;2023-04-07T05:19:49;48538.41;;;-146.00;68.98
21102;BME280;10709;49.006;12.100;2023-04-07T05:22:15;48557.97;;;-146.00;69.06
21102;BME280;10709;49.006;12.100;2023-04-07T05:24:42;48542.31;;;-146.00;68.77
21102;BME280;10709;49.006;12.100;2023-04-07T05:27:08;48542.31;;;-146.00;68.61
21102;BME280;10709;49.006;12.100;2023-04-07T05:29:34;48548.19;;;-146.00;68.39
21102;BME280;10709;49.006;12.100;2023-04-07T05:32:05;48550.16;;;-146.00;68.04
21102;BME280;10709;49.006;12.100;2023-04-07T05:34:32;48550.16;;;-146.00;67.62
21102;BME280;10709;49.006;12.100;2023-04-07T05:36:58;48534.47;;;-146.00;66.96
21102;BME280;10709;49.006;12.100;2023-04-07T05:39:25;48550.16;;;-146.00;66.71
21102;BME280;10709;49.006;12.100;2023-04-07T05:41:52;48528.59;;;-146.00;66.12
21102;BME280;10709;49.006;12.100;2023-04-07T05:44:18;48550.16;;;-146.00;65.69
21102;BME280;10709;49.006;12.100;2023-04-07T05:46:45;48538.41;;;-146.00;65.86
21102;BME280;10709;49.006;12.100;2023-04-07T05:49:11;48557.97;;;-146.00;65.86
21102;BME280;10709;49.006;12.100;2023-04-07T05:51:45;48526.63;;;-146.00;65.95
21102;BME280;10709;49.006;12.100;2023-04-07T05:54:14;48579.53;;;-146.00;65.70
21102;BME280;10709;49.006;12.100;2023-04-07T05:56:40;48550.16;;;-146.00;65.75
21102;BME280;10709;49.006;12.100;2023-04-07T05:59:07;48550.16;;;-146.00;66.12
21102;BME280;10709;49.006;12.100;2023-04-07T06:01:34;48530.56;;;-146.00;66.08
21102;BME280;10709;49.006;12.100;2023-04-07T06:04:01;48542.31;;;-146.00;66.05
21102;BME280;10709;49.006;12.100;2023-04-07T06:06:28;48538.41;;;-146.00;65.13
21102;BME280;10709;49.006;12.100;2023-04-07T06:08:55;48528.59;;;-146.00;65.23
21102;BME280;10709;49.006;12.100;2023-04-07T06:11:22;48522.72;;;-146.00;64.49
21102;BME280;10709;49.006;12.100;2023-04-07T06:13:48;48538.41;;;-146.00;64.31
21102;BME280;10709;49.006;12.100;2023-04-07T06:16:15;48544.28;;;-146.00;64.01
21102;BME280;10709;49.006;12.100;2023-04-07T06:18:44;48561.91;;;-146.00;63.98
21102;BME280;10709;49.006;12.100;2023-04-07T06:21:11;48563.84;;;-146.00;63.89
21102;BME280;10709;49.006;12.100;2023-04-07T06:23:37;48540.34;;;-146.00;63.59
21102;BME280;10709;49.006;12.100;2023-04-07T06:26:04;48536.44;;;-146.00;63.66
21102;BME280;10709;49.006;12.100;2023-04-07T06:28:31;48534.47;;;-146.00;63.31
21102;BME280;10709;49.006;12.100;2023-04-07T06:30:57;48557.97;;;-146.00;62.99
21102;BME280;10709;49.006;12.100;2023-04-07T06:33:25;48546.22;;;-146.00;63.24
21102;BME280;10709;49.006;12.100;2023-04-07T06:35:51;48538.41;;;-146.00;62.80
21102;BME280;10709;49.006;12.100;2023-04-07T06:38:18;48522.72;;;-146.00;62.49
21102;BME280;10709;49.006;12.100;2023-04-07T06:40:44;48538.41;;;-146.00;62.05
21102;BME280;10709;49.006;12.100;2023-04-07T06:43:11;48530.56;;;-146.00;61.82
21102;BME280;10709;49.006;12.100;2023-04-07T06:45:37;48536.44;;;-146.00;61.92
21102;BME280;10709;49.006;12.100;2023-04-07T06:48:04;48538.41;;;-146.00;61.94
21102;BME280;10709;49.006;12.100;2023-04-07T06:50:31;48554.06;;;-146.00;61.76
21102;BME280;10709;49.006;12.100;2023-04-07T06:52:58;48552.09;;;-146.00;61.41
21102;BME280;10709;49.006;12.100;2023-04-07T06:55:24;48526.63;;;-146.00;61.29
21102;BME280;10709;49.006;12.100;2023-04-07T06:57:51;48522.72;;;-146.00;61.25
21102;BME280;10709;49.006;12.100;2023-04-07T07:00:18;48538.41;;;-146.00;60.97
21102;BME280;10709;49.006;12.100;2023-04-07T07:02:44;48573.66;;;-146.00;61.30
21102;BME280;10709;49.006;12.100;2023-04-07T07:05:11;48538.41;;;-146.00;59.95
21102;BME280;10709;49.006;12.100;2023-04-07T07:07:38;48581.50;;;-146.00;59.29
21102;BME280;10709;49.006;12.100;2023-04-07T07:10:05;48573.66;;;-146.00;57.88
21102;BME280;10709;49.006;12.100;2023-04-07T07:12:32;48577.56;;;-146.00;57.88
21102;BME280;10709;49.006;12.100;2023-04-07T07:14:58;48561.91;;;-146.00;59.17
21102;BME280;10709;49.006;12.100;2023-04-07T07:17:25;48573.66;;;-146.00;60.52
21102;BME280;10709;49.006;12.100;2023-04-07T07:19:51;48561.91;;;-146.00;61.21
21102;BME280;10709;49.006;12.100;2023-04-07T07:22:18;48546.22;;;-146.00;61.37
21102;BME280;10709;49.006;12.100;2023-04-07T07:24:44;48554.06;;;-146.00;61.30
21102;BME280;10709;49.006;12.100;2023-04-07T07:27:11;48569.72;;;-146.00;61.58
21102;BME280;10709;49.006;12.100;2023-04-07T07:29:37;48538.41;;;-146.00;63.04
21102;BME280;10709;49.006;12.100;2023-04-07T07:32:04;48554.06;;;-146.00;62.82
21102;BME280;10709;49.006;12.100;2023-04-07T07:34:31;48565.81;;;-146.00;63.07
21102;BME280;10709;49.006;12.100;2023-04-07T07:36:58;48561.91;;;-146.00;62.86
21102;BME280;10709;49.006;12.100;2023-04-07T07:39:25;48546.22;;;-146.00;62.66
21102;BME280;10709;49.006;12.100;2023-04-07T07:41:52;48556.03;;;-146.00;63.03
21102;BME280;10709;49.006;12.100;2023-04-07T07:44:18;48548.19;;;-146.00;63.00
21102;BME280;10709;49.006;12.100;2023-04-07T07:46:49;48565.81;;;-146.00;62.80
21102;BME280;10709;49.006;12.100;2023-04-07T07:49:16;48565.81;;;-146.00;63.22
21102;BME280;10709;49.006;12.100;2023-04-07T07:51:43;48577.56;;;-146.00;63.37
21102;BME280;10709;49.006;12.100;2023-04-07T07:54:11;48569.72;;;-146.00;63.18
21102;BME280;10709;49.006;12.100;2023-04-07T07:56:38;48557.97;;;-146.00;63.40
21102;BME280;10709;49.006;12.100;2023-04-07T07:59:04;48565.81;;;-146.00;63.66
21102;BME280;10709;49.006;12.100;2023-04-07T08:01:33;48569.72;;;-146.00;63.95
21102;BME280;10709;49.006;12.100;2023-04-07T08:04:00;48542.31;;;-146.00;62.89
21102;BME280;10709;49.006;12.100;2023-04-07T08:06:27;48565.81;;;-146.00;63.05
21102;BME280;10709;49.006;12.100;2023-04-07T08:08:56;48559.94;;;-146.00;63.35
21102;BME280;10709;49.006;12.100;2023-04-07T08:11:23;48569.72;;;-146.00;63.39
21102;BME280;10709;49.006;12.100;2023-04-07T08:13:50;48569.72;;;-146.00;63.40
21102;BME280;10709;49.006;12.100;2023-04-07T08:16:16;48550.16;;;-146.00;63.05
21102;BME280;10709;49.006;12.100;2023-04-07T08:18:44;48573.66;;;-146.00;63.77
21102;BME280;10709;49.006;12.100;2023-04-07T08:21:12;48565.81;;;-146.00;63.49
21102;BME280;10709;49.006;12.100;2023-04-07T08:23:39;48557.97;;;-146.00;63.23
21102;BME280;10709;49.006;12.100;2023-04-07T08:26:05;48569.72;;;-146.00;64.03
21102;BME280;10709;49.006;12.100;2023-04-07T08:28:31;48573.66;;;-146.00;63.09
21102;BME280;10709;49.006;12.100;2023-04-07T08:30:58;48569.72;;;-146.00;62.75
21102;BME280;10709;49.006;12.100;2023-04-07T08:33:25;48565.81;;;-146.00;62.78
21102;BME280;10709;49.006;12.100;2023-04-07T08:35:51;48546.22;;;-146.00;62.43
21102;BME280;10709;49.006;12.100;2023-04-07T08:38:18;48569.72;;;-146.00;62.86
21102;BME280;10709;49.006;12.100;2023-04-07T08:40:44;48577.56;;;-146.00;63.07
21102;BME280;10709;49.006;12.100;2023-04-07T08:43:11;48577.56;;;-146.00;62.87
21102;BME280;10709;49.006;12.100;2023-04-07T08:45:40;48589.31;;;-146.00;62.20
21102;BME280;10709;49.006;12.100;2023-04-07T08:48:15;48548.19;;;-146.00;62.25
21102;BME280;10709;49.006;12.100;2023-04-07T08:50:48;48571.69;;;-146.00;62.45
21102;BME280;10709;49.006;12.100;2023-04-07T08:53:23;48579.53;;;-146.00;62.29
21102;BME280;10709;49.006;12.100;2023-04-07T08:55:54;48581.50;;;-146.00;62.89
21102;BME280;10709;49.006;12.100;2023-04-07T08:58:21;48589.31;;;-146.00;62.34
21102;BME280;10709;49.006;12.100;2023-04-07T09:00:49;48577.56;;;-146.00;62.73
21102;BME280;10709;49.006;12.100;2023-04-07T09:03:18;48559.94;;;-146.00;62.02
21102;BME280;10709;49.006;12.100;2023-04-07T09:05:45;48573.66;;;-146.00;61.90
21102;BME280;10709;49.006;12.100;2023-04-07T09:08:11;48577.56;;;-146.00;61.32
21102;BME280;10709;49.006;12.100;2023-04-07T09:10:38;48589.31;;;-146.00;61.35
21102;BME280;10709;49.006;12.100;2023-04-07T09:13:04;48557.97;;;-146.00;61.17
21102;BME280;10709;49.006;12.100;2023-04-07T09:15:31;48565.81;;;-146.00;60.22
21102;BME280;10709;49.006;12.100;2023-04-07T09:17:58;48581.50;;;-146.00;60.48
21102;BME280;10709;49.006;12.100;2023-04-07T09:20:24;48581.50;;;-146.00;61.21
21102;BME280;10709;49.006;12.100;2023-04-07T09:22:51;48577.56;;;-146.00;59.96
21102;BME280;10709;49.006;12.100;2023-04-07T09:25:20;48585.41;;;-146.00;59.37
21102;BME280;10709;49.006;12.100;2023-04-07T09:27:59;48583.44;;;-146.00;58.83
21102;BME280;10709;49.006;12.100;2023-04-07T09:30:31;48565.81;;;-146.00;57.89
21102;BME280;10709;49.006;12.100;2023-04-07T09:32:59;48561.91;;;-146.00;58.32
21102;BME280;10709;49.006;12.100;2023-04-07T09:35:25;48569.72;;;-146.00;58.16
21102;BME280;10709;49.006;12.100;2023-04-07T09:38:20;48567.78;;;-146.00;59.04
21102;BME280;10709;49.006;12.100;2023-04-07T09:40:46;48581.50;;;-146.00;58.92
21102;BME280;10709;49.006;12.100;2023-04-07T09:43:18;48569.72;;;-146.00;58.85
21102;BME280;10709;49.006;12.100;2023-04-07T09:45:44;48557.97;;;-146.00;58.92
21102;BME280;10709;49.006;12.100;2023-04-07T09:48:18;48585.41;;;-146.00;58.51
21102;BME280;10709;49.006;12.100;2023-04-07T09:50:45;48597.16;;;-146.00;58.47
21102;BME280;10709;49.006;12.100;2023-04-07T09:53:15;48589.31;;;-146.00;59.10
21102;BME280;10709;49.006;12.100;2023-04-07T09:55:42;48597.16;;;-146.00;58.40
21102;BME280;10709;49.006;12.100;2023-04-07T09:58:12;48597.16;;;-146.00;58.50
21102;BME280;10709;49.006;12.100;2023-04-07T10:00:42;48575.63;;;-146.00;59.62
21102;BME280;10709;49.006;12.100;2023-04-07T10:03:09;48581.50;;;-146.00;58.64
21102;BME280;10709;49.006;12.100;2023-04-07T10:05:37;48605.00;;;-146.00;58.24
21102;BME280;10709;49.006;12.100;2023-04-07T10:08:08;48569.72;;;-146.00;57.06
21102;BME280;10709;49.006;12.100;2023-04-07T10:10:35;48554.06;;;-146.00;57.14
21102;BME280;10709;49.006;12.100;2023-04-07T10:13:03;48606.94;;;-146.00;56.61
21102;BME280;10709;49.006;12.100;2023-04-07T10:15:31;48593.25;;;-146.00;56.89
21102;BME280;10709;49.006;12.100;2023-04-07T10:17:58;48595.19;;;-146.00;56.14
21102;BME280;10709;49.006;12.100;2023-04-07T10:20:25;48581.50;;;-146.00;56.13
21102;BME280;10709;49.006;12.100;2023-04-07T10:22:54;48597.16;;;-146.00;56.26
21102;BME280;10709;49.006;12.100;2023-04-07T10:25:24;48585.41;;;-146.00;54.66
21102;BME280;10709;49.006;12.100;2023-04-07T10:27:54;48557.97;;;-146.00;54.14
21102;BME280;10709;49.006;12.100;2023-04-07T10:30:32;48581.50;;;-146.00;54.03
21102;BME280;10709;49.006;12.100;2023-04-07T10:32:59;48593.25;;;-146.00;54.43
21102;BME280;10709;49.006;12.100;2023-04-07T10:35:26;48587.38;;;-146.00;55.99
21102;BME280;10709;49.006;12.100;2023-04-07T10:40:34;48589.31;;;-146.00;53.00
21102;BME280;10709;49.006;12.100;2023-04-07T10:43:02;48593.25;;;-146.00;53.81
21102;BME280;10709;49.006;12.100;2023-04-07T10:48:12;48597.16;;;-146.00;53.92
21102;BME280;10709;49.006;12.100;2023-04-07T10:50:39;48595.19;;;-146.00;54.90
21102;BME280;10709;49.006;12.100;2023-04-07T10:53:10;48601.06;;;-146.00;53.83
21102;BME280;10709;49.006;12.100;2023-04-07T10:58:26;48603.03;;;-146.00;53.70
21102;BME280;10709;49.006;12.100;2023-04-07T11:03:23;48587.38;;;-146.00;53.65
21102;BME280;10709;49.006;12.100;2023-04-07T11:05:50;48579.53;;;-146.00;54.58
21102;BME280;10709;49.006;12.100;2023-04-07T11:08:49;48597.16;;;-146.00;55.77
21102;BME280;10709;49.006;12.100;2023-04-07T11:11:20;48589.31;;;-146.00;54.34
21102;BME280;10709;49.006;12.100;2023-04-07T11:13:59;48605.00;;;-146.00;54.31
21102;BME280;10709;49.006;12.100;2023-04-07T11:16:37;48577.56;;;-146.00;54.49
21102;BME280;10709;49.006;12.100;2023-04-07T11:19:04;48597.16;;;-146.00;54.68
21102;BME280;10709;49.006;12.100;2023-04-07T11:21:31;48593.25;;;-146.00;54.41
21102;BME280;10709;49.006;12.100;2023-04-07T11:23:57;48612.84;;;-146.00;54.32
21102;BME280;10709;49.006;12.100;2023-04-07T11:26:24;48603.03;;;-146.00;52.32
21102;BME280;10709;49.006;12.100;2023-04-07T11:28:52;48573.66;;;-146.00;52.29
21102;BME280;10709;49.006;12.100;2023-04-07T11:31:27;48601.06;;;-146.00;51.89
21102;BME280;10709;49.006;12.100;2023-04-07T11:33:57;48606.94;;;-146.00;52.02
21102;BME280;10709;49.006;12.100;2023-04-07T11:36:31;48597.16;;;-146.00;52.19
21102;BME280;10709;49.006;12.100;2023-04-07T11:38:58;48597.16;;;-146.00;50.68
21102;BME280;10709;49.006;12.100;2023-04-07T11:41:27;48612.84;;;-146.00;51.15
21102;BME280;10709;49.006;12.100;2023-04-07T11:44:06;48608.91;;;-146.00;50.85
21102;BME280;10709;49.006;12.100;2023-04-07T11:46:34;48583.44;;;-146.00;51.19
21102;BME280;10709;49.006;12.100;2023-04-07T11:49:11;48589.31;;;-146.00;51.44
21102;BME280;10709;49.006;12.100;2023-04-07T11:51:39;48606.94;;;-146.00;49.62
21102;BME280;10709;49.006;12.100;2023-04-07T11:54:06;48593.25;;;-146.00;48.57
21102;BME280;10709;49.006;12.100;2023-04-07T11:56:46;48599.13;;;-146.00;48.49
21102;BME280;10709;49.006;12.100;2023-04-07T11:59:21;48612.84;;;-146.00;47.09
21102;BME280;10709;49.006;12.100;2023-04-07T12:01:49;48610.88;;;-146.00;48.59
21102;BME280;10709;49.006;12.100;2023-04-07T12:04:17;48608.91;;;-146.00;47.63
21102;BME280;10709;49.006;12.100;2023-04-07T12:06:46;48608.91;;;-146.00;47.18
21102;BME280;10709;49.006;12.100;2023-04-07T12:09:30;48597.16;;;-146.00;48.37
21102;BME280;10709;49.006;12.100;2023-04-07T12:11:57;48614.78;;;-146.00;49.40
21102;BME280;10709;49.006;12.100;2023-04-07T12:14:25;48603.03;;;-146.00;49.09
21102;BME280;10709;49.006;12.100;2023-04-07T12:16:53;48593.25;;;-146.00;49.32
21102;BME280;10709;49.006;12.100;2023-04-07T12:19:22;48593.25;;;-146.00;49.45
21102;BME280;10709;49.006;12.100;2023-04-07T12:21:49;48612.84;;;-146.00;48.14
21102;BME280;10709;49.006;12.100;2023-04-07T12:24:15;48620.66;;;-146.00;48.15
21102;BME280;10709;49.006;12.100;2023-04-07T12:26:42;48628.50;;;-146.00;47.05
21102;BME280;10709;49.006;12.100;2023-04-07T12:29:08;48606.94;;;-146.00;46.28
21102;BME280;10709;49.006;12.100;2023-04-07T12:31:35;48610.88;;;-146.00;47.22
21102;BME280;10709;49.006;12.100;2023-04-07T12:34:02;48628.50;;;-146.00;46.93
21102;BME280;10709;49.006;12.100;2023-04-07T12:36:28;48599.13;;;-146.00;47.97
21102;BME280;10709;49.006;12.100;2023-04-07T12:38:55;48620.66;;;-146.00;48.61
21102;BME280;10709;49.006;12.100;2023-04-07T12:41:22;48612.84;;;-146.00;47.54
21102;BME280;10709;49.006;12.100;2023-04-07T12:43:49;48606.94;;;-146.00;47.96
21102;BME280;10709;49.006;12.100;2023-04-07T12:46:16;48626.53;;;-146.00;47.55
21102;BME280;10709;49.006;12.100;2023-04-07T12:48:43;48632.41;;;-146.00;48.53
21102;BME280;10709;49.006;12.100;2023-04-07T12:51:09;48618.72;;;-146.00;47.34
21102;BME280;10709;49.006;12.100;2023-04-07T12:53:36;48634.38;;;-146.00;47.34